Terminal Aerodrome Forecast
Issued by NWS Kansas City/Pleasant Hill, MO

Home | Current Version | Previous Version | Text Only | Print | Product List | Glossary On
Versions: 1 2 3 4 5 6 7 8 9 10 11 12
000
FTUS43 KEAX 251700
TAFMCI
TAF
KMCI 251720Z 2518/2618 20017G25KT P6SM SCT150
     FM260100 19012KT P6SM SCT150
     FM261500 20012G20KT P6SM SCT100=

USA.gov is the U.S. government's official web portal to all federal, state and local government web resources and services.